sensor_id;sensor_type;location;lat;lon;timestamp;temperature;humidity
75357;HTU21D;63946;51.986;5.930;2023-05-16T04:51:48;10.31;66.52
75357;HTU21D;63946;51.986;5.930;2023-05-16T04:54:17;10.36;66.49
75357;HTU21D;63946;51.986;5.930;2023-05-16T04:56:50;10.39;66.55
75357;HTU21D;63946;51.986;5.930;2023-05-16T04:59:22;10.41;66.54
75357;HTU21D;63946;51.986;5.930;2023-05-16T05:01:53;10.46;66.62
75357;HTU21D;63946;51.986;5.930;2023-05-16T05:04:23;10.52;66.65
75357;HTU21D;63946;51.986;5.930;2023-05-16T05:06:52;10.65;66.52
75357;HTU21D;63946;51.986;5.930;2023-05-16T05:09:21;10.73;66.30
75357;HTU21D;63946;51.986;5.930;2023-05-16T05:11:53;10.75;66.28
75357;HTU21D;63946;51.986;5.930;2023-05-16T05:14:25;10.77;66.28
75357;HTU21D;63946;51.986;5.930;2023-05-16T05:16:56;12.06;64.71
75357;HTU21D;63946;51.986;5.930;2023-05-16T05:19:28;13.59;60.38
75357;HTU21D;63946;51.986;5.930;2023-05-16T05:22:00;13.39;60.07
75357;HTU21D;63946;51.986;5.930;2023-05-16T05:24:34;12.92;61.08
75357;HTU21D;63946;51.986;5.930;2023-05-16T05:27:06;12.56;61.93
75357;HTU21D;63946;51.986;5.930;2023-05-16T05:29:41;12.25;62.55
75357;HTU21D;63946;51.986;5.930;2023-05-16T05:32:10;12.12;62.91
75357;HTU21D;63946;51.986;5.930;2023-05-16T05:34:47;12.08;63.05
75357;HTU21D;63946;51.986;5.930;2023-05-16T05:37:20;12.28;62.64
75357;HTU21D;63946;51.986;5.930;2023-05-16T05:39:51;12.44;61.96
75357;HTU21D;63946;51.986;5.930;2023-05-16T05:42:20;12.56;61.73
75357;HTU21D;63946;51.986;5.930;2023-05-16T05:44:53;12.52;61.63
75357;HTU21D;63946;51.986;5.930;2023-05-16T05:47:24;12.42;61.89
75357;HTU21D;63946;51.986;5.930;2023-05-16T05:49:54;12.34;62.12
75357;HTU21D;63946;51.986;5.930;2023-05-16T05:52:30;12.36;62.11
75357;HTU21D;63946;51.986;5.930;2023-05-16T05:55:01;12.33;62.16
75357;HTU21D;63946;51.986;5.930;2023-05-16T05:57:32;12.23;62.34
75357;HTU21D;63946;51.986;5.930;2023-05-16T06:00:04;12.15;62.43
75357;HTU21D;63946;51.986;5.930;2023-05-16T06:02:40;12.04;62.65
75357;HTU21D;63946;51.986;5.930;2023-05-16T06:05:14;11.97;62.73
75357;HTU21D;63946;51.986;5.930;2023-05-16T06:07:48;11.92;62.82
75357;HTU21D;63946;51.986;5.930;2023-05-16T06:10:21;11.91;62.89
75357;HTU21D;63946;51.986;5.930;2023-05-16T06:12:57;11.88;62.66
75357;HTU21D;63946;51.986;5.930;2023-05-16T06:15:30;11.79;62.67
75357;HTU21D;63946;51.986;5.930;2023-05-16T06:18:02;11.77;62.73
75357;HTU21D;63946;51.986;5.930;2023-05-16T06:20:37;11.81;62.77
75357;HTU21D;63946;51.986;5.930;2023-05-16T06:23:09;12.01;62.55
75357;HTU21D;63946;51.986;5.930;2023-05-16T06:25:44;12.23;62.04
75357;HTU21D;63946;51.986;5.930;2023-05-16T06:28:25;12.26;61.84
75357;HTU21D;63946;51.986;5.930;2023-05-16T06:31:10;12.22;61.93
75357;HTU21D;63946;51.986;5.930;2023-05-16T06:33:54;12.20;61.94
75357;HTU21D;63946;51.986;5.930;2023-05-16T06:36:30;12.19;61.90
75357;HTU21D;63946;51.986;5.930;2023-05-16T06:39:01;12.26;61.85
75357;HTU21D;63946;51.986;5.930;2023-05-16T06:41:33;12.35;61.59
75357;HTU21D;63946;51.986;5.930;2023-05-16T06:44:15;12.53;61.30
75357;HTU21D;63946;51.986;5.930;2023-05-16T06:46:44;12.65;60.96
75357;HTU21D;63946;51.986;5.930;2023-05-16T06:49:13;12.63;61.06
75357;HTU21D;63946;51.986;5.930;2023-05-16T06:51:42;12.59;61.25
75357;HTU21D;63946;51.986;5.930;2023-05-16T06:54:11;12.64;61.18
75357;HTU21D;63946;51.986;5.930;2023-05-16T06:56:40;12.86;60.82
75357;HTU21D;63946;51.986;5.930;2023-05-16T06:59:09;13.07;60.37
75357;HTU21D;63946;51.986;5.930;2023-05-16T07:01:38;13.31;59.80
75357;HTU21D;63946;51.986;5.930;2023-05-16T07:04:09;13.39;59.02
75357;HTU21D;63946;51.986;5.930;2023-05-16T07:06:38;13.55;58.69
75357;HTU21D;63946;51.986;5.930;2023-05-16T07:09:07;13.78;58.21
75357;HTU21D;63946;51.986;5.930;2023-05-16T07:11:42;14.01;57.80
75357;HTU21D;63946;51.986;5.930;2023-05-16T07:14:13;14.21;56.88
75357;HTU21D;63946;51.986;5.930;2023-05-16T07:16:42;14.35;56.71
75357;HTU21D;63946;51.986;5.930;2023-05-16T07:19:11;14.64;56.38
75357;HTU21D;63946;51.986;5.930;2023-05-16T07:21:40;14.95;56.08
75357;HTU21D;63946;51.986;5.930;2023-05-16T07:24:09;15.32;55.34
75357;HTU21D;63946;51.986;5.930;2023-05-16T07:26:41;15.58;54.15
75357;HTU21D;63946;51.986;5.930;2023-05-16T07:29:10;15.51;54.04
75357;HTU21D;63946;51.986;5.930;2023-05-16T07:31:39;15.55;54.33
75357;HTU21D;63946;51.986;5.930;2023-05-16T07:34:09;15.55;53.64
75357;HTU21D;63946;51.986;5.930;2023-05-16T07:36:44;15.32;53.27
75357;HTU21D;63946;51.986;5.930;2023-05-16T07:39:13;15.31;53.67
75357;HTU21D;63946;51.986;5.930;2023-05-16T07:41:45;15.61;52.96
75357;HTU21D;63946;51.986;5.930;2023-05-16T07:44:14;15.97;52.24
75357;HTU21D;63946;51.986;5.930;2023-05-16T07:46:43;16.20;51.09
75357;HTU21D;63946;51.986;5.930;2023-05-16T07:49:12;16.26;50.39
75357;HTU21D;63946;51.986;5.930;2023-05-16T07:51:44;16.37;50.23
75357;HTU21D;63946;51.986;5.930;2023-05-16T07:54:16;16.40;49.17
75357;HTU21D;63946;51.986;5.930;2023-05-16T07:56:45;16.13;49.65
75357;HTU21D;63946;51.986;5.930;2023-05-16T07:59:14;15.83;49.84
75357;HTU21D;63946;51.986;5.930;2023-05-16T08:01:43;15.47;50.52
75357;HTU21D;63946;51.986;5.930;2023-05-16T08:04:12;15.27;51.08
75357;HTU21D;63946;51.986;5.930;2023-05-16T08:06:44;15.08;51.20
75357;HTU21D;63946;51.986;5.930;2023-05-16T08:09:18;14.83;51.66
75357;HTU21D;63946;51.986;5.930;2023-05-16T08:11:47;14.97;51.15
75357;HTU21D;63946;51.986;5.930;2023-05-16T08:14:19;15.31;50.14
75357;HTU21D;63946;51.986;5.930;2023-05-16T08:16:48;15.56;49.33
75357;HTU21D;63946;51.986;5.930;2023-05-16T08:19:17;15.65;48.37
75357;HTU21D;63946;51.986;5.930;2023-05-16T08:21:46;15.73;48.34
75357;HTU21D;63946;51.986;5.930;2023-05-16T08:24:17;15.80;47.74
75357;HTU21D;63946;51.986;5.930;2023-05-16T08:26:46;15.74;48.31
75357;HTU21D;63946;51.986;5.930;2023-05-16T08:29:24;15.43;48.72
75357;HTU21D;63946;51.986;5.930;2023-05-16T08:31:54;15.13;49.32
75357;HTU21D;63946;51.986;5.930;2023-05-16T08:34:24;14.88;49.44
75357;HTU21D;63946;51.986;5.930;2023-05-16T08:36:52;14.75;50.25
75357;HTU21D;63946;51.986;5.930;2023-05-16T08:39:24;14.73;50.47
75357;HTU21D;63946;51.986;5.930;2023-05-16T08:41:58;14.72;50.05
75357;HTU21D;63946;51.986;5.930;2023-05-16T08:44:27;14.79;50.03
75357;HTU21D;63946;51.986;5.930;2023-05-16T08:47:12;15.17;48.86
75357;HTU21D;63946;51.986;5.930;2023-05-16T08:49:42;15.65;48.22
75357;HTU21D;63946;51.986;5.930;2023-05-16T08:52:17;16.22;47.58
75357;HTU21D;63946;51.986;5.930;2023-05-16T08:54:50;16.40;47.53
75357;HTU21D;63946;51.986;5.930;2023-05-16T08:57:25;16.55;47.46
75357;HTU21D;63946;51.986;5.930;2023-05-16T08:59:59;16.39;47.86
75357;HTU21D;63946;51.986;5.930;2023-05-16T09:02:35;16.56;47.67
75357;HTU21D;63946;51.986;5.930;2023-05-16T09:05:08;16.84;47.02
75357;HTU21D;63946;51.986;5.930;2023-05-16T09:07:50;16.98;45.96
75357;HTU21D;63946;51.986;5.930;2023-05-16T09:10:22;16.95;45.70
75357;HTU21D;63946;51.986;5.930;2023-05-16T09:12:51;16.66;45.51
75357;HTU21D;63946;51.986;5.930;2023-05-16T09:15:20;16.75;44.82
75357;HTU21D;63946;51.986;5.930;2023-05-16T09:17:52;16.95;44.03
75357;HTU21D;63946;51.986;5.930;2023-05-16T09:20:21;16.73;43.93
75357;HTU21D;63946;51.986;5.930;2023-05-16T09:22:55;16.36;45.09
75357;HTU21D;63946;51.986;5.930;2023-05-16T09:25:27;16.16;46.31
75357;HTU21D;63946;51.986;5.930;2023-05-16T09:28:00;15.93;45.79
75357;HTU21D;63946;51.986;5.930;2023-05-16T09:30:34;15.74;45.90
75357;HTU21D;63946;51.986;5.930;2023-05-16T09:33:07;15.47;45.85
75357;HTU21D;63946;51.986;5.930;2023-05-16T09:35:38;15.39;46.57
75357;HTU21D;63946;51.986;5.930;2023-05-16T09:38:13;15.66;46.51
75357;HTU21D;63946;51.986;5.930;2023-05-16T09:40:44;15.96;45.79
75357;HTU21D;63946;51.986;5.930;2023-05-16T09:43:21;16.21;45.73
75357;HTU21D;63946;51.986;5.930;2023-05-16T09:45:58;16.48;45.90
75357;HTU21D;63946;51.986;5.930;2023-05-16T09:48:44;16.84;45.67
75357;HTU21D;63946;51.986;5.930;2023-05-16T09:51:23;17.09;45.61
75357;HTU21D;63946;51.986;5.930;2023-05-16T09:53:54;17.26;44.60
75357;HTU21D;63946;51.986;5.930;2023-05-16T09:56:27;17.22;43.30
75357;HTU21D;63946;51.986;5.930;2023-05-16T09:58:56;17.40;43.38
75357;HTU21D;63946;51.986;5.930;2023-05-16T10:01:29;17.34;43.10
75357;HTU21D;63946;51.986;5.930;2023-05-16T10:04:12;17.09;44.20
75357;HTU21D;63946;51.986;5.930;2023-05-16T10:06:42;16.78;44.54
75357;HTU21D;63946;51.986;5.930;2023-05-16T10:09:12;16.47;44.89
75357;HTU21D;63946;51.986;5.930;2023-05-16T10:11:41;16.26;45.78
75357;HTU21D;63946;51.986;5.930;2023-05-16T10:14:11;16.13;46.49
75357;HTU21D;63946;51.986;5.930;2023-05-16T10:16:41;16.13;46.79
75357;HTU21D;63946;51.986;5.930;2023-05-16T10:19:19;16.24;46.43
75357;HTU21D;63946;51.986;5.930;2023-05-16T10:21:52;16.05;46.53
75357;HTU21D;63946;51.986;5.930;2023-05-16T10:24:34;15.87;46.97
75357;HTU21D;63946;51.986;5.930;2023-05-16T10:27:04;15.86;47.23
75357;HTU21D;63946;51.986;5.930;2023-05-16T10:29:33;16.21;46.83
75357;HTU21D;63946;51.986;5.930;2023-05-16T10:32:09;16.69;46.46
75357;HTU21D;63946;51.986;5.930;2023-05-16T10:34:38;17.04;45.32
75357;HTU21D;63946;51.986;5.930;2023-05-16T10:37:08;16.89;44.66
75357;HTU21D;63946;51.986;5.930;2023-05-16T10:39:47;16.67;43.98
75357;HTU21D;63946;51.986;5.930;2023-05-16T10:42:19;16.82;44.02
75357;HTU21D;63946;51.986;5.930;2023-05-16T10:44:48;17.19;43.62
75357;HTU21D;63946;51.986;5.930;2023-05-16T10:47:19;17.67;43.23
75357;HTU21D;63946;51.986;5.930;2023-05-16T10:49:51;18.07;41.63
75357;HTU21D;63946;51.986;5.930;2023-05-16T10:52:31;18.33;41.04
75357;HTU21D;63946;51.986;5.930;2023-05-16T10:55:02;18.42;40.51
75357;HTU21D;63946;51.986;5.930;2023-05-16T10:57:32;18.08;40.11
75357;HTU21D;63946;51.986;5.930;2023-05-16T11:00:06;17.62;40.04
75357;HTU21D;63946;51.986;5.930;2023-05-16T11:02:41;17.19;40.71
75357;HTU21D;63946;51.986;5.930;2023-05-16T11:05:16;16.91;41.78
75357;HTU21D;63946;51.986;5.930;2023-05-16T11:08:01;16.78;42.55
75357;HTU21D;63946;51.986;5.930;2023-05-16T11:10:31;16.86;42.56
75357;HTU21D;63946;51.986;5.930;2023-05-16T11:13:07;17.15;41.84
75357;HTU21D;63946;51.986;5.930;2023-05-16T11:15:36;17.46;41.13
75357;HTU21D;63946;51.986;5.930;2023-05-16T11:18:15;17.72;40.52
75357;HTU21D;63946;51.986;5.930;2023-05-16T11:20:53;17.90;39.78
75357;HTU21D;63946;51.986;5.930;2023-05-16T11:23:33;18.18;39.15
75357;HTU21D;63946;51.986;5.930;2023-05-16T11:26:02;18.48;37.04
75357;HTU21D;63946;51.986;5.930;2023-05-16T11:28:31;18.51;37.17
75357;HTU21D;63946;51.986;5.930;2023-05-16T11:31:00;18.47;37.56
75357;HTU21D;63946;51.986;5.930;2023-05-16T11:33:30;18.52;37.39
75357;HTU21D;63946;51.986;5.930;2023-05-16T11:38:33;18.09;38.06
75357;HTU21D;63946;51.986;5.930;2023-05-16T11:41:04;17.93;37.88
75357;HTU21D;63946;51.986;5.930;2023-05-16T11:43:42;17.84;38.45
75357;HTU21D;63946;51.986;5.930;2023-05-16T11:46:12;17.77;38.83
75357;HTU21D;63946;51.986;5.930;2023-05-16T11:48:44;17.61;38.56
75357;HTU21D;63946;51.986;5.930;2023-05-16T11:51:14;17.44;39.22
75357;HTU21D;63946;51.986;5.930;2023-05-16T11:53:47;17.44;38.58
75357;HTU21D;63946;51.986;5.930;2023-05-16T11:56:19;17.52;38.82
75357;HTU21D;63946;51.986;5.930;2023-05-16T11:58:49;17.91;38.65
75357;HTU21D;63946;51.986;5.930;2023-05-16T12:01:18;18.10;38.27
75357;HTU21D;63946;51.986;5.930;2023-05-16T12:04:00;17.91;37.91
75357;HTU21D;63946;51.986;5.930;2023-05-16T12:06:31;17.76;38.26
75357;HTU21D;63946;51.986;5.930;2023-05-16T12:09:00;17.66;38.85
75357;HTU21D;63946;51.986;5.930;2023-05-16T12:11:42;17.77;38.90
75357;HTU21D;63946;51.986;5.930;2023-05-16T12:14:12;17.85;38.82
75357;HTU21D;63946;51.986;5.930;2023-05-16T12:16:41;17.67;38.88
75357;HTU21D;63946;51.986;5.930;2023-05-16T12:19:19;17.52;38.47
75357;HTU21D;63946;51.986;5.930;2023-05-16T12:21:51;17.36;37.95
75357;HTU21D;63946;51.986;5.930;2023-05-16T12:24:28;17.16;39.39
75357;HTU21D;63946;51.986;5.930;2023-05-16T12:26:57;17.21;39.33
75357;HTU21D;63946;51.986;5.930;2023-05-16T12:29:26;17.37;39.25
75357;HTU21D;63946;51.986;5.930;2023-05-16T12:31:59;17.75;38.62
75357;HTU21D;63946;51.986;5.930;2023-05-16T12:34:37;17.81;38.65
75357;HTU21D;63946;51.986;5.930;2023-05-16T12:37:06;17.59;38.84
75357;HTU21D;63946;51.986;5.930;2023-05-16T12:39:40;17.47;39.14
75357;HTU21D;63946;51.986;5.930;2023-05-16T12:42:19;17.43;39.49
75357;HTU21D;63946;51.986;5.930;2023-05-16T12:44:54;17.34;39.33
75357;HTU21D;63946;51.986;5.930;2023-05-16T12:47:35;17.21;39.72
75357;HTU21D;63946;51.986;5.930;2023-05-16T12:50:09;17.17;39.69
75357;HTU21D;63946;51.986;5.930;2023-05-16T12:52:53;17.24;39.36
75357;HTU21D;63946;51.986;5.930;2023-05-16T12:55:24;17.26;39.53
75357;HTU21D;63946;51.986;5.930;2023-05-16T12:57:54;17.25;39.73
75357;HTU21D;63946;51.986;5.930;2023-05-16T13:00:29;17.20;39.84
75357;HTU21D;63946;51.986;5.930;2023-05-16T13:03:02;17.04;40.15
75357;HTU21D;63946;51.986;5.930;2023-05-16T13:05:32;16.99;40.49
75357;HTU21D;63946;51.986;5.930;2023-05-16T13:08:02;16.86;40.91
75357;HTU21D;63946;51.986;5.930;2023-05-16T13:10:34;16.72;41.26
75357;HTU21D;63946;51.986;5.930;2023-05-16T13:13:05;16.63;41.74
75357;HTU21D;63946;51.986;5.930;2023-05-16T13:15:36;16.64;42.00
75357;HTU21D;63946;51.986;5.930;2023-05-16T13:18:07;16.76;42.18
75357;HTU21D;63946;51.986;5.930;2023-05-16T13:20:36;17.03;41.69
75357;HTU21D;63946;51.986;5.930;2023-05-16T13:23:08;17.05;41.55
75357;HTU21D;63946;51.986;5.930;2023-05-16T13:25:40;17.09;41.44
75357;HTU21D;63946;51.986;5.930;2023-05-16T13:28:09;17.03;41.10
75357;HTU21D;63946;51.986;5.930;2023-05-16T13:30:39;16.95;41.48
75357;HTU21D;63946;51.986;5.930;2023-05-16T13:33:08;16.98;41.56
75357;HTU21D;63946;51.986;5.930;2023-05-16T13:35:37;16.92;40.94
75357;HTU21D;63946;51.986;5.930;2023-05-16T13:38:12;16.66;41.50
75357;HTU21D;63946;51.986;5.930;2023-05-16T13:40:46;16.65;42.02
75357;HTU21D;63946;51.986;5.930;2023-05-16T13:43:18;16.51;42.18
75357;HTU21D;63946;51.986;5.930;2023-05-16T13:45:47;16.39;42.75
75357;HTU21D;63946;51.986;5.930;2023-05-16T13:48:16;16.34;42.94
75357;HTU21D;63946;51.986;5.930;2023-05-16T13:50:48;16.24;43.13
75357;HTU21D;63946;51.986;5.930;2023-05-16T13:53:20;16.14;43.60
75357;HTU21D;63946;51.986;5.930;2023-05-16T13:55:51;16.13;43.84
75357;HTU21D;63946;51.986;5.930;2023-05-16T13:58:20;16.04;44.01
75357;HTU21D;63946;51.986;5.930;2023-05-16T14:00:58;15.93;44.25
75357;HTU21D;63946;51.986;5.930;2023-05-16T14:03:30;15.80;44.45
75357;HTU21D;63946;51.986;5.930;2023-05-16T14:06:01;15.69;44.80
75357;HTU21D;63946;51.986;5.930;2023-05-16T14:08:43;15.61;45.25
75357;HTU21D;63946;51.986;5.930;2023-05-16T14:11:26;15.57;45.93
75357;HTU21D;63946;51.986;5.930;2023-05-16T14:13:56;15.51;45.93
75357;HTU21D;63946;51.986;5.930;2023-05-16T14:16:28;15.51;46.02
75357;HTU21D;63946;51.986;5.930;2023-05-16T14:18:58;15.48;45.96
75357;HTU21D;63946;51.986;5.930;2023-05-16T14:21:30;15.37;46.31
75357;HTU21D;63946;51.986;5.930;2023-05-16T14:23:59;15.34;46.51
75357;HTU21D;63946;51.986;5.930;2023-05-16T14:26:33;15.29;46.70
75357;HTU21D;63946;51.986;5.930;2023-05-16T14:29:03;15.27;47.07
75357;HTU21D;63946;51.986;5.930;2023-05-16T14:31:48;15.26;47.36
75357;HTU21D;63946;51.986;5.930;2023-05-16T14:34:17;15.19;47.66
75357;HTU21D;63946;51.986;5.930;2023-05-16T14:36:47;15.26;47.81
75357;HTU21D;63946;51.986;5.930;2023-05-16T14:39:19;15.37;47.76
75357;HTU21D;63946;51.986;5.930;2023-05-16T14:41:48;15.53;47.76
75357;HTU21D;63946;51.986;5.930;2023-05-16T14:44:21;15.66;47.64
75357;HTU21D;63946;51.986;5.930;2023-05-16T14:46:50;15.67;47.37
75357;HTU21D;63946;51.986;5.930;2023-05-16T14:49:19;15.67;47.36
75357;HTU21D;63946;51.986;5.930;2023-05-16T14:51:57;15.67;47.36
75357;HTU21D;63946;51.986;5.930;2023-05-16T14:54:26;15.60;46.89
75357;HTU21D;63946;51.986;5.930;2023-05-16T14:57:02;15.57;47.21
75357;HTU21D;63946;51.986;5.930;2023-05-16T14:59:32;15.74;46.88
75357;HTU21D;63946;51.986;5.930;2023-05-16T15:02:09;15.80;46.61
75357;HTU21D;63946;51.986;5.930;2023-05-16T15:04:41;15.77;46.53
75357;HTU21D;63946;51.986;5.930;2023-05-16T15:07:23;15.74;46.57
75357;HTU21D;63946;51.986;5.930;2023-05-16T15:10:01;15.54;46.38
75357;HTU21D;63946;51.986;5.930;2023-05-16T15:12:32;15.41;46.71
75357;HTU21D;63946;51.986;5.930;2023-05-16T15:15:01;15.37;46.93
75357;HTU21D;63946;51.986;5.930;2023-05-16T15:17:33;15.32;46.99
75357;HTU21D;63946;51.986;5.930;2023-05-16T15:20:05;15.27;46.97
75357;HTU21D;63946;51.986;5.930;2023-05-16T15:22:40;15.23;46.63
75357;HTU21D;63946;51.986;5.930;2023-05-16T15:25:13;15.12;46.86
75357;HTU21D;63946;51.986;5.930;2023-05-16T15:27:45;15.15;47.12
75357;HTU21D;63946;51.986;5.930;2023-05-16T15:30:14;15.15;47.15
75357;HTU21D;63946;51.986;5.930;2023-05-16T15:32:46;15.15;46.99
75357;HTU21D;63946;51.986;5.930;2023-05-16T15:35:20;15.16;46.91
75357;HTU21D;63946;51.986;5.930;2023-05-16T15:37:48;15.16;46.99
75357;HTU21D;63946;51.986;5.930;2023-05-16T15:40:17;15.15;46.89
75357;HTU21D;63946;51.986;5.930;2023-05-16T15:42:51;15.17;47.04
75357;HTU21D;63946;51.986;5.930;2023-05-16T15:45:25;15.14;46.80
75357;HTU21D;63946;51.986;5.930;2023-05-16T15:48:00;15.17;46.99
75357;HTU21D;63946;51.986;5.930;2023-05-16T15:50:32;15.16;47.06
75357;HTU21D;63946;51.986;5.930;2023-05-16T15:53:04;15.14;46.84
75357;HTU21D;63946;51.986;5.930;2023-05-16T15:55:36;15.15;46.96
75357;HTU21D;63946;51.986;5.930;2023-05-16T15:58:06;15.18;46.57
75357;HTU21D;63946;51.986;5.930;2023-05-16T16:00:49;15.01;46.37
75357;HTU21D;63946;51.986;5.930;2023-05-16T16:03:25;14.92;46.80
75357;HTU21D;63946;51.986;5.930;2023-05-16T16:05:56;14.98;47.04
75357;HTU21D;63946;51.986;5.930;2023-05-16T16:08:28;15.01;46.92
75357;HTU21D;63946;51.986;5.930;2023-05-16T16:11:01;15.00;46.90
75357;HTU21D;63946;51.986;5.930;2023-05-16T16:13:33;14.97;47.06
75357;HTU21D;63946;51.986;5.930;2023-05-16T16:16:03;14.99;46.80
75357;HTU21D;63946;51.986;5.930;2023-05-16T16:18:39;14.80;46.74
75357;HTU21D;63946;51.986;5.930;2023-05-16T16:21:09;14.75;47.22
75357;HTU21D;63946;51.986;5.930;2023-05-16T16:23:42;14.74;47.37
75357;HTU21D;63946;51.986;5.930;2023-05-16T16:26:14;14.72;47.46
75357;HTU21D;63946;51.986;5.930;2023-05-16T16:28:46;14.73;47.39
75357;HTU21D;63946;51.986;5.930;2023-05-16T16:31:15;14.71;47.60
75357;HTU21D;63946;51.986;5.930;2023-05-16T16:33:49;14.79;47.65
75357;HTU21D;63946;51.986;5.930;2023-05-16T16:36:21;14.81;47.57
75357;HTU21D;63946;51.986;5.930;2023-05-16T16:38:54;14.85;47.61
75357;HTU21D;63946;51.986;5.930;2023-05-16T16:41:25;14.86;47.65
75357;HTU21D;63946;51.986;5.930;2023-05-16T16:43:57;14.88;47.66
75357;HTU21D;63946;51.986;5.930;2023-05-16T16:46:26;14.86;47.78
75357;HTU21D;63946;51.986;5.930;2023-05-16T16:48:56;14.86;47.86
75357;HTU21D;63946;51.986;5.930;2023-05-16T16:54:09;14.72;47.79
75357;HTU21D;63946;51.986;5.930;2023-05-16T16:56:45;14.71;47.95
75357;HTU21D;63946;51.986;5.930;2023-05-16T16:59:22;14.70;47.83
75357;HTU21D;63946;51.986;5.930;2023-05-16T17:01:53;14.68;48.02
75357;HTU21D;63946;51.986;5.930;2023-05-16T17:04:27;14.70;47.96
75357;HTU21D;63946;51.986;5.930;2023-05-16T17:06:56;14.72;48.11
75357;HTU21D;63946;51.986;5.930;2023-05-16T17:09:35;14.72;48.09
75357;HTU21D;63946;51.986;5.930;2023-05-16T17:12:16;14.70;48.39
75357;HTU21D;63946;51.986;5.930;2023-05-16T17:14:56;14.71;48.17
75357;HTU21D;63946;51.986;5.930;2023-05-16T17:17:37;14.65;48.39
75357;HTU21D;63946;51.986;5.930;2023-05-16T17:20:11;14.67;48.56
75357;HTU21D;63946;51.986;5.930;2023-05-16T17:22:40;14.66;48.50
75357;HTU21D;63946;51.986;5.930;2023-05-16T17:27:54;14.57;48.48
75357;HTU21D;63946;51.986;5.930;2023-05-16T17:30:24;14.54;48.68
75357;HTU21D;63946;51.986;5.930;2023-05-16T17:32:59;14.49;48.83
75357;HTU21D;63946;51.986;5.930;2023-05-16T17:35:28;14.51;48.98
75357;HTU21D;63946;51.986;5.930;2023-05-16T17:38:03;14.49;49.10
75357;HTU21D;63946;51.986;5.930;2023-05-16T17:40:33;14.45;49.16
75357;HTU21D;63946;51.986;5.930;2023-05-16T17:43:03;14.45;49.31
75357;HTU21D;63946;51.986;5.930;2023-05-16T17:45:32;14.42;49.33
75357;HTU21D;63946;51.986;5.930;2023-05-16T17:48:03;14.41;49.52
75357;HTU21D;63946;51.986;5.930;2023-05-16T17:50:33;14.43;49.73
75357;HTU21D;63946;51.986;5.930;2023-05-16T17:53:11;14.42;49.82
75357;HTU21D;63946;51.986;5.930;2023-05-16T17:55:40;14.40;49.98
75357;HTU21D;63946;51.986;5.930;2023-05-16T17:58:17;14.42;50.18
75357;HTU21D;63946;51.986;5.930;2023-05-16T18:00:46;14.36;50.57
75357;HTU21D;63946;51.986;5.930;2023-05-16T18:03:18;14.32;51.24
75357;HTU21D;63946;51.986;5.930;2023-05-16T18:05:52;14.25;52.28
75357;HTU21D;63946;51.986;5.930;2023-05-16T18:08:24;14.13;53.57
75357;HTU21D;63946;51.986;5.930;2023-05-16T18:10:53;13.97;54.85
75357;HTU21D;63946;51.986;5.930;2023-05-16T18:13:31;13.70;55.57
75357;HTU21D;63946;51.986;5.930;2023-05-16T18:16:04;13.34;57.00
75357;HTU21D;63946;51.986;5.930;2023-05-16T18:18:44;13.18;57.96
75357;HTU21D;63946;51.986;5.930;2023-05-16T18:21:16;13.12;58.38
75357;HTU21D;63946;51.986;5.930;2023-05-16T18:23:47;13.08;58.89
75357;HTU21D;63946;51.986;5.930;2023-05-16T18:26:16;13.06;59.42
75357;HTU21D;63946;51.986;5.930;2023-05-16T18:28:52;13.03;59.46
75357;HTU21D;63946;51.986;5.930;2023-05-16T18:31:23;13.01;59.73
75357;HTU21D;63946;51.986;5.930;2023-05-16T18:33:54;12.97;60.09
75357;HTU21D;63946;51.986;5.930;2023-05-16T18:36:24;12.97;60.08
75357;HTU21D;63946;51.986;5.930;2023-05-16T18:38:53;12.95;60.15
75357;HTU21D;63946;51.986;5.930;2023-05-16T18:41:22;12.91;60.43
75357;HTU21D;63946;51.986;5.930;2023-05-16T18:43:52;12.89;60.62
75357;HTU21D;63946;51.986;5.930;2023-05-16T18:46:22;12.84;60.65
75357;HTU21D;63946;51.986;5.930;2023-05-16T18:49:01;12.74;61.12
75357;HTU21D;63946;51.986;5.930;2023-05-16T18:51:34;12.67;61.31
75357;HTU21D;63946;51.986;5.930;2023-05-16T18:54:05;12.64;61.47
75357;HTU21D;63946;51.986;5.930;2023-05-16T18:56:36;12.60;61.73
75357;HTU21D;63946;51.986;5.930;2023-05-16T18:59:07;12.58;61.97
75357;HTU21D;63946;51.986;5.930;2023-05-16T19:01:39;12.53;62.32
75357;HTU21D;63946;51.986;5.930;2023-05-16T19:04:09;12.49;62.36
75357;HTU21D;63946;51.986;5.930;2023-05-16T19:06:41;12.46;62.73
75357;HTU21D;63946;51.986;5.930;2023-05-16T19:09:10;12.43;62.87
75357;HTU21D;63946;51.986;5.930;2023-05-16T19:11:44;12.37;63.13
75357;HTU21D;63946;51.986;5.930;2023-05-16T19:14:13;12.31;63.32
75357;HTU21D;63946;51.986;5.930;2023-05-16T19:16:41;12.29;63.48
75357;HTU21D;63946;51.986;5.930;2023-05-16T19:19:17;12.29;64.05
75357;HTU21D;63946;51.986;5.930;2023-05-16T19:22:01;12.29;64.10
75357;HTU21D;63946;51.986;5.930;2023-05-16T19:24:32;12.31;63.84
75357;HTU21D;63946;51.986;5.930;2023-05-16T19:27:01;12.29;63.97
75357;HTU21D;63946;51.986;5.930;2023-05-16T19:29:36;12.31;64.24
75357;HTU21D;63946;51.986;5.930;2023-05-16T19:32:09;12.31;64.28
75357;HTU21D;63946;51.986;5.930;2023-05-16T19:34:41;12.31;64.16
75357;HTU21D;63946;51.986;5.930;2023-05-16T19:37:14;12.26;64.18
75357;HTU21D;63946;51.986;5.930;2023-05-16T19:39:52;12.23;64.17
75357;HTU21D;63946;51.986;5.930;2023-05-16T19:42:21;12.18;64.27
75357;HTU21D;63946;51.986;5.930;2023-05-16T19:44:59;12.14;64.50
75357;HTU21D;63946;51.986;5.930;2023-05-16T19:47:31;12.12;64.53
75357;HTU21D;63946;51.986;5.930;2023-05-16T19:50:06;12.10;64.68
75357;HTU21D;63946;51.986;5.930;2023-05-16T19:52:37;12.10;64.62
75357;HTU21D;63946;51.986;5.930;2023-05-16T19:55:08;12.06;64.76
75357;HTU21D;63946;51.986;5.930;2023-05-16T19:57:43;12.04;64.99
75357;HTU21D;63946;51.986;5.930;2023-05-16T20:00:18;12.00;65.20
75357;HTU21D;63946;51.986;5.930;2023-05-16T20:02:47;11.92;65.22
75357;HTU21D;63946;51.986;5.930;2023-05-16T20:05:16;11.89;65.37
75357;HTU21D;63946;51.986;5.930;2023-05-16T20:07:50;11.86;65.38
75357;HTU21D;63946;51.986;5.930;2023-05-16T20:10:20;11.82;65.43
75357;HTU21D;63946;51.986;5.930;2023-05-16T20:12:53;11.77;65.52
75357;HTU21D;63946;51.986;5.930;2023-05-16T20:15:21;11.75;65.54
75357;HTU21D;63946;51.986;5.930;2023-05-16T20:17:50;11.70;65.65
75357;HTU21D;63946;51.986;5.930;2023-05-16T20:20:19;11.70;65.62
